createdAt,value
2017-09-20T00:01:25.335Z,85.26
2017-09-20T00:03:54.983Z,85.91
2017-09-20T00:06:24.409Z,85.13
2017-09-20T00:08:54.171Z,84.44
2017-09-20T00:11:23.651Z,84.10
2017-09-20T00:13:53.033Z,84.37
2017-09-20T00:16:22.560Z,84.60
2017-09-20T00:18:52.336Z,84.86
2017-09-20T00:21:21.751Z,84.00
2017-09-20T00:23:51.288Z,83.67
2017-09-20T00:26:21.047Z,83.68
2017-09-20T00:28:50.913Z,83.57
2017-09-20T00:31:20.275Z,85.71
2017-09-20T00:33:49.983Z,83.65
2017-09-20T00:36:19.935Z,83.80
2017-09-20T00:38:49.572Z,84.01
2017-09-20T00:41:19.512Z,85.72
2017-09-20T00:43:49.571Z,84.61
2017-09-20T00:46:19.258Z,84.87
2017-09-20T00:48:48.694Z,85.48
2017-09-20T00:51:18.564Z,84.73
2017-09-20T00:53:47.964Z,84.54
2017-09-20T00:56:17.571Z,84.21
2017-09-20T00:58:47.583Z,84.87
2017-09-20T01:01:17.346Z,85.32
2017-09-20T01:03:47.004Z,85.19
2017-09-20T01:06:16.902Z,84.68
2017-09-20T01:08:46.635Z,85.95
2017-09-20T01:11:16.304Z,84.75
2017-09-20T01:13:46.360Z,84.59
2017-09-20T01:16:15.720Z,84.96
2017-09-20T01:18:45.313Z,85.18
2017-09-20T01:22:25.219Z,86.22
2017-09-20T01:24:55.210Z,85.83
2017-09-20T01:27:24.758Z,86.27
2017-09-20T01:29:54.884Z,85.54
2017-09-20T01:32:24.180Z,84.94
2017-09-20T01:34:53.886Z,85.21
2017-09-20T01:37:23.523Z,85.85
2017-09-20T01:39:52.969Z,85.52
2017-09-20T01:42:22.280Z,85.80
2017-09-20T01:44:52.135Z,85.65
2017-09-20T01:47:21.768Z,85.79
2017-09-20T01:49:51.594Z,85.39
2017-09-20T01:52:21.110Z,85.69
2017-09-20T01:54:51.054Z,86.09
2017-09-20T01:57:20.538Z,86.22
2017-09-20T01:59:50.138Z,86.29
2017-09-20T02:02:19.638Z,85.90
2017-09-20T02:04:49.439Z,86.39
2017-09-20T02:07:18.850Z,86.17
2017-09-20T02:09:48.522Z,85.87
2017-09-20T02:12:17.967Z,86.06
2017-09-20T02:14:48.387Z,86.90
2017-09-20T02:17:17.937Z,86.41
2017-09-20T02:19:47.342Z,86.47
2017-09-20T02:22:16.835Z,86.95
2017-09-20T02:24:46.740Z,86.89
2017-09-20T02:27:16.218Z,87.73
2017-09-20T02:29:45.799Z,87.64
2017-09-20T02:32:15.527Z,87.37
2017-09-20T02:34:45.199Z,88.21
2017-09-20T02:37:14.667Z,88.43
2017-09-20T02:39:44.029Z,88.18
2017-09-20T02:42:13.922Z,87.63
2017-09-20T02:44:43.346Z,87.99
2017-09-20T02:47:12.907Z,88.44
2017-09-20T02:49:47.054Z,88.82
2017-09-20T02:52:16.634Z,88.86
2017-09-20T02:54:46.127Z,89.22
2017-09-20T02:57:16.063Z,89.08
2017-09-20T02:59:45.508Z,89.17
2017-09-20T03:02:14.667Z,88.27
2017-09-20T03:04:44.254Z,88.43
2017-09-20T03:07:14.378Z,88.31
2017-09-20T03:09:43.779Z,88.92
2017-09-20T03:12:13.333Z,88.03
2017-09-20T03:14:43.254Z,90.16
2017-09-20T03:17:12.819Z,89.17
2017-09-20T03:19:42.355Z,88.54
2017-09-20T03:22:13.455Z,88.94
2017-09-20T03:24:42.978Z,89.40
2017-09-20T03:27:12.493Z,90.39
2017-09-20T03:29:42.102Z,89.83
2017-09-20T03:32:13.568Z,91.17
2017-09-20T03:34:42.987Z,89.80
2017-09-20T03:37:12.768Z,89.59
2017-09-20T03:39:42.079Z,89.68
2017-09-20T03:42:11.530Z,90.67
2017-09-20T03:44:41.487Z,89.65
2017-09-20T03:47:10.907Z,89.86
2017-09-20T03:49:40.102Z,89.93
2017-09-20T03:52:09.576Z,89.83
2017-09-20T03:54:39.320Z,89.89
2017-09-20T03:57:08.714Z,90.53
2017-09-20T03:59:38.019Z,90.30
2017-09-20T04:02:07.883Z,90.04
2017-09-20T04:04:37.574Z,90.08
2017-09-20T04:07:07.025Z,90.01
2017-09-20T04:09:36.919Z,90.51
2017-09-20T04:12:06.460Z,91.01
2017-09-20T04:14:35.995Z,90.89
2017-09-20T04:17:05.597Z,89.51
2017-09-20T04:19:35.683Z,90.08
2017-09-20T04:22:05.084Z,89.92
2017-09-20T04:24:34.896Z,90.09
2017-09-20T04:27:04.303Z,90.55
2017-09-20T04:29:35.391Z,90.44
2017-09-20T04:32:04.746Z,90.20
2017-09-20T04:34:34.475Z,90.17
2017-09-20T04:37:03.974Z,89.79
2017-09-20T04:39:33.656Z,90.36
2017-09-20T04:42:03.485Z,89.87
2017-09-20T04:44:33.339Z,90.03
2017-09-20T04:47:02.808Z,89.92
2017-09-20T04:49:32.578Z,89.41
2017-09-20T04:52:01.742Z,90.23
2017-09-20T04:54:31.142Z,90.06
2017-09-20T04:57:00.766Z,90.38
2017-09-20T04:59:30.007Z,90.06
2017-09-20T05:01:59.263Z,90.13
2017-09-20T05:04:28.723Z,90.12
2017-09-20T05:06:57.927Z,90.49
2017-09-20T05:09:28.370Z,90.60
2017-09-20T05:11:58.211Z,90.19
2017-09-20T05:14:27.551Z,90.28
2017-09-20T05:16:58.475Z,90.26
2017-09-20T05:19:28.017Z,90.05
2017-09-20T05:21:59.187Z,90.08
2017-09-20T05:24:28.544Z,90.23
2017-09-20T05:26:58.930Z,90.20
2017-09-20T05:29:28.271Z,90.79
2017-09-20T05:31:58.878Z,89.95
2017-09-20T05:34:28.494Z,91.17
2017-09-20T05:36:59.533Z,91.34
2017-09-20T05:39:29.242Z,91.23
2017-09-20T05:42:00.039Z,91.04
2017-09-20T05:44:29.620Z,90.02
2017-09-20T05:46:58.898Z,90.00
2017-09-20T05:49:28.447Z,89.73
2017-09-20T05:51:59.239Z,89.58
2017-09-20T05:54:28.487Z,89.78
2017-09-20T05:56:59.028Z,91.13
2017-09-20T05:59:28.363Z,90.25
2017-09-20T06:01:58.860Z,89.49
2017-09-20T06:04:28.415Z,89.56
2017-09-20T06:06:59.738Z,89.97
2017-09-20T06:09:30.239Z,90.17
2017-09-20T06:12:00.206Z,89.96
2017-09-20T06:14:29.586Z,89.65
2017-09-20T06:17:00.172Z,89.57
2017-09-20T06:19:29.738Z,89.68
2017-09-20T06:21:58.895Z,89.61
2017-09-20T06:24:28.206Z,89.06
2017-09-20T06:26:57.724Z,88.84
2017-09-20T06:29:27.287Z,89.50
2017-09-20T06:31:56.805Z,89.23
2017-09-20T06:34:26.889Z,88.83
2017-09-20T06:36:56.143Z,88.75
2017-09-20T06:39:25.724Z,88.46
2017-09-20T06:41:55.262Z,89.12
2017-09-20T06:44:24.494Z,88.27
2017-09-20T06:46:58.159Z,87.83
2017-09-20T06:49:27.634Z,88.25
2017-09-20T06:51:56.939Z,88.50
2017-09-20T06:54:26.341Z,88.76
2017-09-20T06:56:56.258Z,88.22
2017-09-20T06:59:25.627Z,88.95
2017-09-20T07:01:54.839Z,88.56
2017-09-20T07:04:24.669Z,88.69
2017-09-20T07:06:54.340Z,88.33
2017-09-20T07:09:23.627Z,87.79
2017-09-20T07:11:53.544Z,87.97
2017-09-20T07:14:22.771Z,88.18
2017-09-20T07:16:51.931Z,87.36
2017-09-20T07:19:21.502Z,87.41
2017-09-20T07:21:58.950Z,88.43
2017-09-20T07:24:28.746Z,88.23
2017-09-20T07:26:58.194Z,87.40
2017-09-20T07:29:28.042Z,87.07
2017-09-20T07:31:57.318Z,87.78
2017-09-20T07:34:27.244Z,87.53
2017-09-20T07:36:56.514Z,87.19
2017-09-20T07:39:26.033Z,87.35
2017-09-20T07:41:55.967Z,87.04
2017-09-20T07:44:25.128Z,87.58
2017-09-20T07:46:54.262Z,85.93
2017-09-20T07:49:25.190Z,86.45
2017-09-20T07:51:54.687Z,84.61
2017-09-20T07:54:23.854Z,84.54
2017-09-20T07:56:53.918Z,84.80
2017-09-20T07:59:23.487Z,83.80
2017-09-20T08:01:53.008Z,84.39
2017-09-20T08:04:22.706Z,82.79
2017-09-20T08:06:52.274Z,84.83
2017-09-20T08:09:21.850Z,83.52
2017-09-20T08:11:51.742Z,83.86
2017-09-20T08:14:21.235Z,82.94
2017-09-20T08:16:50.484Z,82.12
2017-09-20T08:19:19.948Z,82.03
2017-09-20T08:21:49.447Z,81.20
2017-09-20T08:24:18.764Z,81.58
2017-09-20T08:26:48.332Z,82.38
2017-09-20T08:29:17.487Z,81.72
2017-09-20T08:31:46.634Z,82.11
2017-09-20T08:34:16.583Z,81.45
2017-09-20T08:36:46.086Z,81.48
2017-09-20T08:39:15.554Z,81.84
2017-09-20T08:41:44.971Z,80.89
2017-09-20T08:44:14.826Z,79.25
2017-09-20T08:46:44.439Z,78.15
2017-09-20T08:49:14.062Z,78.12
2017-09-20T08:51:44.140Z,78.02
2017-09-20T08:54:13.631Z,76.88
2017-09-20T08:56:43.532Z,77.09
2017-09-20T08:59:13.323Z,77.46
2017-09-20T09:01:42.743Z,76.26
2017-09-20T09:04:12.118Z,76.96
2017-09-20T09:06:41.672Z,75.46
2017-09-20T09:09:12.233Z,75.51
2017-09-20T09:11:41.706Z,76.42
2017-09-20T09:14:12.314Z,76.75
2017-09-20T09:16:41.515Z,76.25
2017-09-20T09:19:14.195Z,75.68
2017-09-20T09:21:43.885Z,76.05
2017-09-20T09:24:13.362Z,75.42
2017-09-20T09:26:42.851Z,74.96
2017-09-20T09:29:12.734Z,73.42
2017-09-20T09:31:42.227Z,74.50
2017-09-20T09:34:11.719Z,73.11
2017-09-20T09:36:41.154Z,72.50
2017-09-20T09:39:10.353Z,72.54
2017-09-20T09:41:39.730Z,73.80
2017-09-20T09:44:09.239Z,75.52
2017-09-20T09:46:38.845Z,74.94
2017-09-20T09:49:08.258Z,73.66
2017-09-20T09:51:37.967Z,70.83
2017-09-20T09:54:08.511Z,69.71
2017-09-20T09:56:38.091Z,70.94
2017-09-20T09:59:08.750Z,70.12
2017-09-20T10:01:37.966Z,69.33
2017-09-20T10:04:09.767Z,68.12
2017-09-20T10:06:39.897Z,67.80
2017-09-20T10:09:10.624Z,66.94
2017-09-20T10:11:40.052Z,67.99
2017-09-20T10:14:10.455Z,65.90
2017-09-20T10:16:39.705Z,67.38
2017-09-20T10:19:10.887Z,64.02
2017-09-20T10:21:41.072Z,62.54
2017-09-20T10:24:11.532Z,64.24
2017-09-20T10:26:41.149Z,65.60
2017-09-20T10:29:11.434Z,64.66
2017-09-20T10:31:40.720Z,64.34
2017-09-20T10:34:09.897Z,66.79
2017-09-20T10:36:39.952Z,68.22
2017-09-20T10:39:09.375Z,68.60
2017-09-20T10:41:38.638Z,68.30
2017-09-20T10:44:10.129Z,67.69
2017-09-20T10:46:39.822Z,62.34
2017-09-20T10:49:09.352Z,61.23
2017-09-20T10:51:39.904Z,57.75
2017-09-20T10:54:09.245Z,56.71
2017-09-20T10:56:38.870Z,58.58
2017-09-20T10:59:08.725Z,56.94
2017-09-20T11:01:37.994Z,56.39
2017-09-20T11:04:07.158Z,55.35
2017-09-20T11:06:36.710Z,55.74
2017-09-20T11:09:08.265Z,55.22
2017-09-20T11:11:37.683Z,55.55
2017-09-20T11:14:07.327Z,53.93
2017-09-20T11:16:36.566Z,55.77
2017-09-20T11:19:05.856Z,56.05
2017-09-20T11:21:35.394Z,55.63
2017-09-20T11:24:04.666Z,54.73
2017-09-20T11:26:34.491Z,55.43
2017-09-20T11:29:04.403Z,54.48
2017-09-20T11:31:33.788Z,54.59
2017-09-20T11:34:02.942Z,55.08
2017-09-20T11:36:32.526Z,52.11
2017-09-20T11:39:01.685Z,52.54
2017-09-20T11:41:30.997Z,51.61
2017-09-20T11:44:00.776Z,51.79
2017-09-20T11:46:30.318Z,53.21
2017-09-20T11:48:59.479Z,52.90
2017-09-20T11:51:28.919Z,53.71
2017-09-20T11:53:58.062Z,55.32
2017-09-20T11:56:27.240Z,56.70
2017-09-20T11:58:56.828Z,56.63
2017-09-20T12:01:26.042Z,57.07
2017-09-20T12:03:55.609Z,59.27
2017-09-20T12:06:25.027Z,58.12
2017-09-20T12:08:54.158Z,58.98
2017-09-20T12:11:23.321Z,60.17
2017-09-20T12:13:52.789Z,60.86
2017-09-20T12:16:21.963Z,61.18
2017-09-20T12:18:51.099Z,61.73
2017-09-20T12:21:20.531Z,60.70
2017-09-20T12:23:49.782Z,59.62
2017-09-20T12:26:18.912Z,60.08
2017-09-20T12:28:49.324Z,59.84
2017-09-20T12:31:18.505Z,60.32
2017-09-20T12:33:48.451Z,60.23
2017-09-20T12:36:18.318Z,61.03
2017-09-20T12:38:47.565Z,61.87
2017-09-20T12:41:16.776Z,62.19
2017-09-20T12:43:46.350Z,63.71
2017-09-20T12:46:15.556Z,69.85
2017-09-20T12:48:44.698Z,72.01
2017-09-20T12:51:14.510Z,72.02
2017-09-20T12:53:43.682Z,73.71
2017-09-20T12:56:13.019Z,73.83
2017-09-20T12:58:43.020Z,72.87
2017-09-20T13:01:12.269Z,70.35
2017-09-20T13:03:41.796Z,69.68
2017-09-20T13:06:11.282Z,68.97
2017-09-20T13:08:40.460Z,67.46
2017-09-20T13:11:09.853Z,66.48
2017-09-20T13:13:39.307Z,66.17
2017-09-20T13:16:08.544Z,66.03
2017-09-20T13:18:37.767Z,64.21
2017-09-20T13:21:07.214Z,61.41
2017-09-20T13:23:36.511Z,58.88
2017-09-20T13:26:05.684Z,59.17
2017-09-20T13:28:35.359Z,60.85
2017-09-20T13:31:04.574Z,60.77
2017-09-20T13:33:33.742Z,61.99
2017-09-20T13:36:03.196Z,62.38
2017-09-20T13:38:32.506Z,61.81
2017-09-20T13:41:02.019Z,62.56
2017-09-20T13:43:31.966Z,62.47
2017-09-20T13:46:01.366Z,64.10
2017-09-20T13:48:30.746Z,65.12
2017-09-20T13:51:00.391Z,65.01
2017-09-20T13:53:29.527Z,64.66
2017-09-20T13:55:58.784Z,64.23
2017-09-20T13:58:28.316Z,66.29
2017-09-20T14:00:57.619Z,65.67
2017-09-20T14:03:27.030Z,65.99
2017-09-20T14:05:56.708Z,66.18
2017-09-20T14:08:25.862Z,66.55
2017-09-20T14:10:55.030Z,66.43
2017-09-20T14:13:24.750Z,66.98
2017-09-20T14:15:53.956Z,67.41
2017-09-20T14:18:23.209Z,68.36
2017-09-20T14:20:52.767Z,68.51
2017-09-20T14:23:22.015Z,68.24
2017-09-20T14:25:51.202Z,69.18
2017-09-20T14:28:20.809Z,68.79
2017-09-20T14:30:50.034Z,69.43
2017-09-20T14:33:19.303Z,69.15
2017-09-20T14:35:48.807Z,69.73
2017-09-20T14:38:18.107Z,68.64
2017-09-20T14:40:47.239Z,68.61
2017-09-20T14:43:16.699Z,72.44
2017-09-20T14:45:45.926Z,73.62
2017-09-20T14:48:15.104Z,74.20
2017-09-20T14:50:44.712Z,74.00
2017-09-20T14:53:13.850Z,74.22
2017-09-20T14:55:43.014Z,72.91
2017-09-20T14:58:12.468Z,74.12
2017-09-20T15:00:41.685Z,74.95
2017-09-20T15:03:10.858Z,75.35
2017-09-20T15:05:40.328Z,76.01
2017-09-20T15:08:09.520Z,75.69
2017-09-20T15:10:39.122Z,75.76
2017-09-20T15:13:08.763Z,75.56
2017-09-20T15:15:37.999Z,75.18
2017-09-20T15:18:07.338Z,76.35
2017-09-20T15:20:36.808Z,76.94
2017-09-20T15:23:06.161Z,77.98
2017-09-20T15:25:35.370Z,78.08
2017-09-20T15:28:05.005Z,78.21
2017-09-20T15:30:34.215Z,77.83
2017-09-20T15:33:03.478Z,78.76
2017-09-20T15:35:32.953Z,78.48
2017-09-20T15:38:02.092Z,78.09
2017-09-20T15:40:31.269Z,79.37
2017-09-20T15:43:00.707Z,79.51
2017-09-20T15:45:29.906Z,79.90
2017-09-20T15:47:59.226Z,79.97
2017-09-20T15:50:28.721Z,81.03
2017-09-20T15:52:57.929Z,81.61
2017-09-20T15:55:30.984Z,80.63
2017-09-20T15:58:00.473Z,80.29
2017-09-20T16:00:29.679Z,81.86
2017-09-20T16:02:58.911Z,81.78
2017-09-20T16:05:28.414Z,82.05
2017-09-20T16:07:57.621Z,81.91
2017-09-20T16:10:27.767Z,82.92
2017-09-20T16:12:57.362Z,81.54
2017-09-20T16:15:26.591Z,83.32
2017-09-20T16:27:11.700Z,80.25
2017-09-20T16:29:41.066Z,79.89
2017-09-20T16:32:10.338Z,80.57
2017-09-20T16:34:39.902Z,81.36
2017-09-20T16:37:09.262Z,80.69
2017-09-20T16:39:38.546Z,79.90
2017-09-20T16:42:08.057Z,79.49
2017-09-20T16:44:37.430Z,79.71
2017-09-20T16:47:08.858Z,79.36
2017-09-20T16:49:38.410Z,79.95
2017-09-20T16:52:07.594Z,79.98
2017-09-20T16:54:36.798Z,79.88
2017-09-20T16:57:06.754Z,80.37
2017-09-20T16:59:36.050Z,80.82
2017-09-20T17:02:05.309Z,80.60
2017-09-20T17:04:34.814Z,80.24
2017-09-20T17:07:04.064Z,80.48
2017-09-20T17:09:33.271Z,80.46
2017-09-20T17:12:03.226Z,80.88
2017-09-20T17:14:34.466Z,83.18
2017-09-20T17:17:04.103Z,81.63
2017-09-20T17:19:33.606Z,85.04
2017-09-20T17:22:03.590Z,82.44
2017-09-20T17:24:33.384Z,83.73
2017-09-20T17:27:03.046Z,82.74
2017-09-20T17:29:32.231Z,82.86
2017-09-20T17:32:01.403Z,82.93
2017-09-20T17:34:30.884Z,83.76
2017-09-20T17:37:00.254Z,83.46
2017-09-20T17:39:29.452Z,83.64
2017-09-20T17:41:58.906Z,83.39
2017-09-20T17:44:28.238Z,83.29
2017-09-20T17:46:57.443Z,83.54
2017-09-20T17:49:26.907Z,83.50
2017-09-20T17:51:56.384Z,83.59
2017-09-20T17:54:25.638Z,83.38
2017-09-20T17:56:55.123Z,83.29
2017-09-20T17:59:24.437Z,83.47
2017-09-20T18:01:53.668Z,83.58
2017-09-20T18:04:23.175Z,83.62
2017-09-20T18:06:52.359Z,83.47
2017-09-20T18:09:21.711Z,83.70
2017-09-20T18:11:51.287Z,83.31
2017-09-20T18:14:20.515Z,83.29
2017-09-20T18:16:49.707Z,84.10
2017-09-20T18:19:19.307Z,84.51
2017-09-20T18:21:48.471Z,84.38
2017-09-20T18:24:17.664Z,84.09
2017-09-20T18:26:47.196Z,84.58
2017-09-20T18:29:16.353Z,84.73
2017-09-20T18:31:45.524Z,84.41
2017-09-20T18:34:15.226Z,84.72
2017-09-20T18:36:44.410Z,84.88
2017-09-20T18:39:13.594Z,84.50
2017-09-20T18:41:43.176Z,84.20
2017-09-20T18:44:12.558Z,83.93
2017-09-20T18:46:42.375Z,83.80
2017-09-20T18:49:12.413Z,83.68
2017-09-20T18:51:41.674Z,83.61
2017-09-20T18:54:11.125Z,83.58
2017-09-20T18:56:40.579Z,83.80
2017-09-20T18:59:09.820Z,84.28
2017-09-20T19:01:39.242Z,84.57
2017-09-20T19:04:08.686Z,84.24
2017-09-20T19:06:37.998Z,86.04
2017-09-20T19:09:07.207Z,85.57
2017-09-20T19:11:36.659Z,86.18
2017-09-20T19:14:05.898Z,86.45
2017-09-20T19:16:35.130Z,86.85
2017-09-20T19:19:04.594Z,86.20
2017-09-20T19:21:33.796Z,86.31
2017-09-20T19:24:03.140Z,86.74
2017-09-20T19:26:32.899Z,86.70
2017-09-20T19:29:02.411Z,86.69
2017-09-20T19:31:32.326Z,86.35
2017-09-20T19:34:01.944Z,86.13
2017-09-20T19:36:31.494Z,86.16
2017-09-20T19:39:00.859Z,86.13
2017-09-20T19:41:31.142Z,86.38
2017-09-20T19:44:00.476Z,86.30
2017-09-20T19:46:29.620Z,86.40
2017-09-20T19:48:59.157Z,86.28
2017-09-20T19:51:29.207Z,86.38
2017-09-20T19:53:58.516Z,86.30
2017-09-20T19:56:28.521Z,86.43
2017-09-20T19:58:58.146Z,86.86
2017-09-20T20:01:27.658Z,86.95
2017-09-20T20:03:57.333Z,87.32
2017-09-20T20:06:26.730Z,87.18
2017-09-20T20:08:56.077Z,87.47
2017-09-20T20:11:26.219Z,87.13
2017-09-20T20:13:55.761Z,87.16
2017-09-20T20:16:25.274Z,87.77
2017-09-20T20:18:55.270Z,87.65
2017-09-20T20:21:24.734Z,87.30
2017-09-20T20:23:53.932Z,86.75
2017-09-20T20:26:23.623Z,87.19
2017-09-20T20:28:52.944Z,87.59
2017-09-20T20:31:22.154Z,87.23
2017-09-20T20:33:51.978Z,86.73
2017-09-20T20:36:21.517Z,87.32
2017-09-20T20:38:50.902Z,87.04
2017-09-20T20:41:20.503Z,87.51
2017-09-20T20:43:49.818Z,87.64
2017-09-20T20:46:19.392Z,87.77
2017-09-20T20:48:49.075Z,87.64
2017-09-20T20:51:18.449Z,87.73
2017-09-20T20:53:47.757Z,87.73
2017-09-20T20:56:17.458Z,87.61
2017-09-20T20:58:46.899Z,87.77
2017-09-20T21:01:16.187Z,87.87
2017-09-20T21:03:46.156Z,87.54
2017-09-20T21:06:15.492Z,87.69
2017-09-20T21:08:44.996Z,87.79
2017-09-20T21:11:14.664Z,87.46
2017-09-20T21:13:44.515Z,87.01
2017-09-20T21:16:13.981Z,86.97
2017-09-20T21:18:43.901Z,87.45
2017-09-20T21:21:13.234Z,87.47
2017-09-20T21:23:42.431Z,86.89
2017-09-20T21:26:12.054Z,87.68
2017-09-20T21:28:41.590Z,86.60
2017-09-20T21:31:11.211Z,88.03
2017-09-20T21:33:41.274Z,89.21
2017-09-20T21:36:10.499Z,87.84
2017-09-20T21:38:39.638Z,87.70
2017-09-20T21:41:09.368Z,87.64
2017-09-20T21:43:38.746Z,87.81
2017-09-20T21:46:08.098Z,87.71
2017-09-20T21:48:37.657Z,87.64
2017-09-20T21:51:06.827Z,87.76
2017-09-20T21:53:36.071Z,87.55
2017-09-20T21:56:05.686Z,87.79
2017-09-20T21:58:35.349Z,88.03
2017-09-20T22:01:05.071Z,88.15
2017-09-20T22:03:34.942Z,88.13
2017-09-20T22:06:04.735Z,87.89
2017-09-20T22:08:34.446Z,88.16
2017-09-20T22:11:04.291Z,87.32
2017-09-20T22:13:33.842Z,89.78
2017-09-20T22:16:14.134Z,88.67
2017-09-20T22:18:54.620Z,88.58
2017-09-20T22:21:35.632Z,88.38
2017-09-20T22:24:16.403Z,88.39
2017-09-20T22:26:45.395Z,88.11
2017-09-20T22:29:15.923Z,88.35
2017-09-20T22:31:45.090Z,90.00
2017-09-20T22:34:15.246Z,88.54
2017-09-20T22:36:45.050Z,88.92
2017-09-20T22:39:14.355Z,88.69
2017-09-20T22:41:43.703Z,88.59
2017-09-20T22:44:13.902Z,88.81
2017-09-20T22:46:43.497Z,89.01
2017-09-20T22:49:12.725Z,88.82
2017-09-20T22:51:42.189Z,88.67
2017-09-20T22:54:11.442Z,88.53
2017-09-20T22:56:40.689Z,88.94
2017-09-20T22:59:11.428Z,88.84
2017-09-20T23:01:41.234Z,88.48
2017-09-20T23:04:10.598Z,88.72
2017-09-20T23:06:40.335Z,88.50
2017-09-20T23:09:11.183Z,88.97
2017-09-20T23:11:40.765Z,89.63
2017-09-20T23:14:11.734Z,88.90
2017-09-20T23:16:41.007Z,89.11
2017-09-20T23:20:35.876Z,88.92
2017-09-20T23:23:06.801Z,88.92
2017-09-20T23:25:37.024Z,89.71
2017-09-20T23:28:06.626Z,89.56
2017-09-20T23:30:36.363Z,89.17
2017-09-20T23:33:05.965Z,88.92
2017-09-20T23:35:35.622Z,89.74
2017-09-20T23:38:05.390Z,90.07
2017-09-20T23:40:35.011Z,89.28
2017-09-20T23:43:04.435Z,90.73
2017-09-20T23:45:34.227Z,90.00
2017-09-20T23:48:03.694Z,89.61
2017-09-20T23:50:33.141Z,89.44
2017-09-20T23:53:03.102Z,91.23
2017-09-20T23:55:32.924Z,90.86
2017-09-20T23:58:02.277Z,90.86
